sensor_id;sensor_type;location;lat;lon;timestamp;P1;durP1;ratioP1;P2;durP2;ratioP2
76290;SDS011;65100;46.884;17.410;2023-02-16T00:01:11;35.70;;;14.43;;
76290;SDS011;65100;46.884;17.410;2023-02-16T01:07:37;34.67;;;12.52;;
76290;SDS011;65100;46.884;17.410;2023-02-16T01:10:21;37.70;;;14.02;;
76290;SDS011;65100;46.884;17.410;2023-02-16T01:13:06;36.70;;;13.60;;
76290;SDS011;65100;46.884;17.410;2023-02-16T01:15:32;37.10;;;13.20;;
76290;SDS011;65100;46.884;17.410;2023-02-16T01:17:57;31.17;;;12.73;;
76290;SDS011;65100;46.884;17.410;2023-02-16T01:20:24;35.23;;;14.00;;
76290;SDS011;65100;46.884;17.410;2023-02-16T01:22:50;33.17;;;13.90;;
76290;SDS011;65100;46.884;17.410;2023-02-16T01:25:16;37.93;;;13.77;;
76290;SDS011;65100;46.884;17.410;2023-02-16T01:27:41;35.03;;;12.63;;
76290;SDS011;65100;46.884;17.410;2023-02-16T01:30:10;35.50;;;13.55;;
76290;SDS011;65100;46.884;17.410;2023-02-16T01:32:41;36.50;;;13.70;;
76290;SDS011;65100;46.884;17.410;2023-02-16T01:35:07;36.10;;;14.43;;
76290;SDS011;65100;46.884;17.410;2023-02-16T01:37:34;34.85;;;12.55;;
76290;SDS011;65100;46.884;17.410;2023-02-16T01:40:00;36.38;;;14.05;;
76290;SDS011;65100;46.884;17.410;2023-02-16T01:42:40;35.50;;;13.80;;
76290;SDS011;65100;46.884;17.410;2023-02-16T01:45:37;37.50;;;14.25;;
76290;SDS011;65100;46.884;17.410;2023-02-16T01:48:05;39.60;;;14.70;;
76290;SDS011;65100;46.884;17.410;2023-02-16T01:51:20;36.25;;;13.00;;
76290;SDS011;65100;46.884;17.410;2023-02-16T01:53:48;37.57;;;14.30;;
76290;SDS011;65100;46.884;17.410;2023-02-16T01:56:50;38.63;;;13.57;;
76290;SDS011;65100;46.884;17.410;2023-02-16T02:02:13;35.95;;;13.65;;
76290;SDS011;65100;46.884;17.410;2023-02-16T02:04:56;38.67;;;14.05;;
76290;SDS011;65100;46.884;17.410;2023-02-16T02:07:47;34.93;;;14.33;;
76290;SDS011;65100;46.884;17.410;2023-02-16T02:13:16;36.75;;;13.40;;
76290;SDS011;65100;46.884;17.410;2023-02-16T02:15:46;38.22;;;14.15;;
76290;SDS011;65100;46.884;17.410;2023-02-16T02:18:12;37.20;;;14.23;;
76290;SDS011;65100;46.884;17.410;2023-02-16T02:29:19;35.28;;;13.70;;
76290;SDS011;65100;46.884;17.410;2023-02-16T02:45:28;39.05;;;14.32;;
76290;SDS011;65100;46.884;17.410;2023-02-16T02:47:58;36.35;;;14.52;;
76290;SDS011;65100;46.884;17.410;2023-02-16T02:53:42;38.58;;;13.02;;
76290;SDS011;65100;46.884;17.410;2023-02-16T02:56:36;36.35;;;13.35;;
76290;SDS011;65100;46.884;17.410;2023-02-16T02:59:43;37.57;;;13.10;;
76290;SDS011;65100;46.884;17.410;2023-02-16T03:02:38;39.45;;;13.10;;
76290;SDS011;65100;46.884;17.410;2023-02-16T03:05:06;39.20;;;14.15;;
76290;SDS011;65100;46.884;17.410;2023-02-16T03:07:33;37.17;;;12.93;;
76290;SDS011;65100;46.884;17.410;2023-02-16T03:13:00;34.57;;;12.47;;
76290;SDS011;65100;46.884;17.410;2023-02-16T03:15:26;35.80;;;13.68;;
76290;SDS011;65100;46.884;17.410;2023-02-16T03:17:54;36.30;;;13.27;;
76290;SDS011;65100;46.884;17.410;2023-02-16T03:20:40;34.65;;;12.55;;
76290;SDS011;65100;46.884;17.410;2023-02-16T03:23:26;30.77;;;11.73;;
76290;SDS011;65100;46.884;17.410;2023-02-16T03:26:11;34.50;;;12.20;;
76290;SDS011;65100;46.884;17.410;2023-02-16T03:28:56;31.83;;;11.15;;
76290;SDS011;65100;46.884;17.410;2023-02-16T03:31:39;35.10;;;12.45;;
76290;SDS011;65100;46.884;17.410;2023-02-16T03:34:05;34.30;;;12.18;;
76290;SDS011;65100;46.884;17.410;2023-02-16T03:36:32;37.50;;;13.75;;
76290;SDS011;65100;46.884;17.410;2023-02-16T03:39:00;38.30;;;13.80;;
76290;SDS011;65100;46.884;17.410;2023-02-16T03:41:30;40.40;;;14.05;;
76290;SDS011;65100;46.884;17.410;2023-02-16T03:44:02;40.47;;;13.93;;
76290;SDS011;65100;46.884;17.410;2023-02-16T03:46:28;38.23;;;13.97;;
76290;SDS011;65100;46.884;17.410;2023-02-16T03:48:53;37.38;;;14.32;;
76290;SDS011;65100;46.884;17.410;2023-02-16T03:51:19;39.70;;;14.67;;
76290;SDS011;65100;46.884;17.410;2023-02-16T03:53:44;40.47;;;14.57;;
76290;SDS011;65100;46.884;17.410;2023-02-16T03:56:10;36.80;;;13.10;;
76290;SDS011;65100;46.884;17.410;2023-02-16T03:58:35;35.93;;;13.20;;
76290;SDS011;65100;46.884;17.410;2023-02-16T04:01:01;37.70;;;14.57;;
76290;SDS011;65100;46.884;17.410;2023-02-16T04:03:26;36.90;;;13.95;;
76290;SDS011;65100;46.884;17.410;2023-02-16T04:05:52;39.50;;;14.40;;
76290;SDS011;65100;46.884;17.410;2023-02-16T04:08:17;38.33;;;15.07;;
76290;SDS011;65100;46.884;17.410;2023-02-16T04:10:43;39.70;;;13.73;;
76290;SDS011;65100;46.884;17.410;2023-02-16T04:13:09;39.22;;;15.18;;
76290;SDS011;65100;46.884;17.410;2023-02-16T04:15:34;38.87;;;15.30;;
76290;SDS011;65100;46.884;17.410;2023-02-16T04:18:00;39.33;;;14.33;;
76290;SDS011;65100;46.884;17.410;2023-02-16T04:20:27;42.80;;;15.38;;
76290;SDS011;65100;46.884;17.410;2023-02-16T04:22:54;45.10;;;15.97;;
76290;SDS011;65100;46.884;17.410;2023-02-16T04:25:19;44.80;;;15.30;;
76290;SDS011;65100;46.884;17.410;2023-02-16T04:27:45;40.80;;;15.20;;
76290;SDS011;65100;46.884;17.410;2023-02-16T04:30:13;43.10;;;15.13;;
76290;SDS011;65100;46.884;17.410;2023-02-16T04:32:42;40.88;;;14.73;;
76290;SDS011;65100;46.884;17.410;2023-02-16T04:35:08;43.65;;;14.65;;
76290;SDS011;65100;46.884;17.410;2023-02-16T04:37:34;41.03;;;15.57;;
76290;SDS011;65100;46.884;17.410;2023-02-16T04:39:59;40.23;;;14.97;;
76290;SDS011;65100;46.884;17.410;2023-02-16T04:42:25;43.55;;;15.90;;
76290;SDS011;65100;46.884;17.410;2023-02-16T04:44:50;49.90;;;17.80;;
76290;SDS011;65100;46.884;17.410;2023-02-16T04:47:16;37.17;;;12.50;;
76290;SDS011;65100;46.884;17.410;2023-02-16T04:49:41;36.42;;;13.63;;
76290;SDS011;65100;46.884;17.410;2023-02-16T04:52:07;42.47;;;15.70;;
76290;SDS011;65100;46.884;17.410;2023-02-16T04:54:33;42.25;;;15.93;;
76290;SDS011;65100;46.884;17.410;2023-02-16T04:56:59;44.40;;;17.20;;
76290;SDS011;65100;46.884;17.410;2023-02-16T04:59:25;45.10;;;15.67;;
76290;SDS011;65100;46.884;17.410;2023-02-16T05:01:51;44.10;;;15.90;;
76290;SDS011;65100;46.884;17.410;2023-02-16T05:04:17;42.78;;;15.70;;
76290;SDS011;65100;46.884;17.410;2023-02-16T05:06:42;43.83;;;15.63;;
76290;SDS011;65100;46.884;17.410;2023-02-16T05:09:08;47.90;;;15.18;;
76290;SDS011;65100;46.884;17.410;2023-02-16T05:11:34;42.07;;;16.07;;
76290;SDS011;65100;46.884;17.410;2023-02-16T05:14:27;44.90;;;15.82;;
76290;SDS011;65100;46.884;17.410;2023-02-16T05:17:26;38.80;;;13.50;;
76290;SDS011;65100;46.884;17.410;2023-02-16T05:19:56;37.78;;;13.45;;
76290;SDS011;65100;46.884;17.410;2023-02-16T05:22:23;38.43;;;13.70;;
76290;SDS011;65100;46.884;17.410;2023-02-16T05:24:49;35.78;;;12.68;;
76290;SDS011;65100;46.884;17.410;2023-02-16T05:27:18;40.65;;;14.38;;
76290;SDS011;65100;46.884;17.410;2023-02-16T05:29:46;37.58;;;13.65;;
76290;SDS011;65100;46.884;17.410;2023-02-16T05:32:11;44.20;;;15.10;;
76290;SDS011;65100;46.884;17.410;2023-02-16T05:34:37;37.03;;;14.53;;
76290;SDS011;65100;46.884;17.410;2023-02-16T05:37:02;39.65;;;13.00;;
76290;SDS011;65100;46.884;17.410;2023-02-16T05:39:28;38.15;;;13.93;;
76290;SDS011;65100;46.884;17.410;2023-02-16T05:41:54;36.57;;;13.70;;
76290;SDS011;65100;46.884;17.410;2023-02-16T05:44:20;39.25;;;13.80;;
76290;SDS011;65100;46.884;17.410;2023-02-16T05:46:46;36.80;;;13.43;;
76290;SDS011;65100;46.884;17.410;2023-02-16T05:49:11;35.67;;;14.13;;
76290;SDS011;65100;46.884;17.410;2023-02-16T05:51:38;38.90;;;14.15;;
76290;SDS011;65100;46.884;17.410;2023-02-16T05:54:04;36.97;;;13.37;;
76290;SDS011;65100;46.884;17.410;2023-02-16T05:56:30;34.70;;;13.30;;
76290;SDS011;65100;46.884;17.410;2023-02-16T05:58:56;38.15;;;13.32;;
76290;SDS011;65100;46.884;17.410;2023-02-16T06:01:25;40.88;;;14.52;;
76290;SDS011;65100;46.884;17.410;2023-02-16T06:03:52;37.30;;;13.27;;
76290;SDS011;65100;46.884;17.410;2023-02-16T06:06:17;39.40;;;14.37;;
76290;SDS011;65100;46.884;17.410;2023-02-16T06:08:43;37.92;;;14.15;;
76290;SDS011;65100;46.884;17.410;2023-02-16T06:11:08;38.57;;;15.00;;
76290;SDS011;65100;46.884;17.410;2023-02-16T06:13:54;36.65;;;14.25;;
76290;SDS011;65100;46.884;17.410;2023-02-16T06:16:26;36.45;;;13.98;;
76290;SDS011;65100;46.884;17.410;2023-02-16T06:18:53;40.23;;;14.50;;
76290;SDS011;65100;46.884;17.410;2023-02-16T06:21:19;39.58;;;15.55;;
76290;SDS011;65100;46.884;17.410;2023-02-16T06:23:45;42.72;;;15.55;;
76290;SDS011;65100;46.884;17.410;2023-02-16T06:26:11;48.85;;;16.38;;
76290;SDS011;65100;46.884;17.410;2023-02-16T06:28:37;41.13;;;16.20;;
76290;SDS011;65100;46.884;17.410;2023-02-16T06:31:02;44.20;;;14.83;;
76290;SDS011;65100;46.884;17.410;2023-02-16T06:33:28;43.17;;;15.77;;
76290;SDS011;65100;46.884;17.410;2023-02-16T06:35:53;49.07;;;16.77;;
76290;SDS011;65100;46.884;17.410;2023-02-16T06:38:18;41.20;;;17.13;;
76290;SDS011;65100;46.884;17.410;2023-02-16T06:40:44;48.00;;;18.63;;
76290;SDS011;65100;46.884;17.410;2023-02-16T06:43:09;41.97;;;16.03;;
76290;SDS011;65100;46.884;17.410;2023-02-16T06:45:35;42.50;;;15.57;;
76290;SDS011;65100;46.884;17.410;2023-02-16T06:48:00;41.27;;;14.93;;
76290;SDS011;65100;46.884;17.410;2023-02-16T06:50:26;37.37;;;14.97;;
76290;SDS011;65100;46.884;17.410;2023-02-16T06:52:51;42.20;;;15.75;;
76290;SDS011;65100;46.884;17.410;2023-02-16T06:55:16;37.23;;;15.20;;
76290;SDS011;65100;46.884;17.410;2023-02-16T06:57:42;45.53;;;16.30;;
76290;SDS011;65100;46.884;17.410;2023-02-16T07:00:08;42.50;;;16.40;;
76290;SDS011;65100;46.884;17.410;2023-02-16T07:02:33;43.10;;;16.38;;
76290;SDS011;65100;46.884;17.410;2023-02-16T07:05:00;45.60;;;18.00;;
76290;SDS011;65100;46.884;17.410;2023-02-16T07:07:25;48.38;;;19.13;;
76290;SDS011;65100;46.884;17.410;2023-02-16T07:09:51;46.20;;;17.87;;
76290;SDS011;65100;46.884;17.410;2023-02-16T07:12:16;42.28;;;18.10;;
76290;SDS011;65100;46.884;17.410;2023-02-16T07:14:41;44.90;;;19.07;;
76290;SDS011;65100;46.884;17.410;2023-02-16T07:17:07;46.63;;;18.50;;
76290;SDS011;65100;46.884;17.410;2023-02-16T07:19:32;45.40;;;18.17;;
76290;SDS011;65100;46.884;17.410;2023-02-16T07:21:58;45.70;;;19.02;;
76290;SDS011;65100;46.884;17.410;2023-02-16T07:24:45;54.40;;;20.67;;
76290;SDS011;65100;46.884;17.410;2023-02-16T07:27:10;48.28;;;19.92;;
76290;SDS011;65100;46.884;17.410;2023-02-16T07:29:36;54.70;;;22.60;;
76290;SDS011;65100;46.884;17.410;2023-02-16T07:32:02;51.00;;;22.97;;
76290;SDS011;65100;46.884;17.410;2023-02-16T07:34:28;53.33;;;21.98;;
76290;SDS011;65100;46.884;17.410;2023-02-16T07:36:53;50.88;;;21.13;;
76290;SDS011;65100;46.884;17.410;2023-02-16T07:39:19;50.73;;;22.27;;
76290;SDS011;65100;46.884;17.410;2023-02-16T07:41:44;59.00;;;21.57;;
76290;SDS011;65100;46.884;17.410;2023-02-16T07:44:10;55.33;;;21.88;;
76290;SDS011;65100;46.884;17.410;2023-02-16T07:46:35;60.13;;;23.80;;
76290;SDS011;65100;46.884;17.410;2023-02-16T07:49:00;50.87;;;21.53;;
76290;SDS011;65100;46.884;17.410;2023-02-16T07:51:27;57.43;;;23.30;;
76290;SDS011;65100;46.884;17.410;2023-02-16T07:53:55;53.03;;;22.23;;
76290;SDS011;65100;46.884;17.410;2023-02-16T07:56:22;50.63;;;21.38;;
76290;SDS011;65100;46.884;17.410;2023-02-16T07:58:52;51.53;;;22.25;;
76290;SDS011;65100;46.884;17.410;2023-02-16T08:01:21;55.65;;;23.65;;
76290;SDS011;65100;46.884;17.410;2023-02-16T08:03:48;52.90;;;23.07;;
76290;SDS011;65100;46.884;17.410;2023-02-16T08:06:14;55.90;;;22.15;;
76290;SDS011;65100;46.884;17.410;2023-02-16T08:08:40;56.40;;;23.52;;
76290;SDS011;65100;46.884;17.410;2023-02-16T08:13:39;51.03;;;21.13;;
76290;SDS011;65100;46.884;17.410;2023-02-16T08:16:11;51.63;;;21.67;;
76290;SDS011;65100;46.884;17.410;2023-02-16T08:18:39;53.13;;;21.20;;
76290;SDS011;65100;46.884;17.410;2023-02-16T08:21:11;48.70;;;20.70;;
76290;SDS011;65100;46.884;17.410;2023-02-16T08:23:39;49.78;;;21.85;;
76290;SDS011;65100;46.884;17.410;2023-02-16T08:26:10;50.55;;;22.30;;
76290;SDS011;65100;46.884;17.410;2023-02-16T08:28:36;50.25;;;21.05;;
76290;SDS011;65100;46.884;17.410;2023-02-16T08:31:04;48.53;;;21.20;;
76290;SDS011;65100;46.884;17.410;2023-02-16T08:33:30;58.07;;;23.73;;
76290;SDS011;65100;46.884;17.410;2023-02-16T08:35:57;52.95;;;23.55;;
76290;SDS011;65100;46.884;17.410;2023-02-16T08:38:23;55.75;;;23.92;;
76290;SDS011;65100;46.884;17.410;2023-02-16T08:40:49;55.70;;;24.10;;
76290;SDS011;65100;46.884;17.410;2023-02-16T08:43:14;60.72;;;26.73;;
76290;SDS011;65100;46.884;17.410;2023-02-16T08:45:46;64.13;;;27.63;;
76290;SDS011;65100;46.884;17.410;2023-02-16T08:48:12;64.10;;;26.70;;
76290;SDS011;65100;46.884;17.410;2023-02-16T08:50:41;67.80;;;28.00;;
76290;SDS011;65100;46.884;17.410;2023-02-16T08:53:12;63.03;;;28.65;;
76290;SDS011;65100;46.884;17.410;2023-02-16T08:55:38;68.37;;;29.07;;
76290;SDS011;65100;46.884;17.410;2023-02-16T08:58:03;63.85;;;26.90;;
76290;SDS011;65100;46.884;17.410;2023-02-16T09:00:29;60.33;;;25.60;;
76290;SDS011;65100;46.884;17.410;2023-02-16T09:02:58;63.33;;;26.98;;
76290;SDS011;65100;46.884;17.410;2023-02-16T09:05:24;58.63;;;24.23;;
76290;SDS011;65100;46.884;17.410;2023-02-16T09:07:52;56.85;;;23.38;;
76290;SDS011;65100;46.884;17.410;2023-02-16T09:10:18;61.90;;;25.38;;
76290;SDS011;65100;46.884;17.410;2023-02-16T09:12:45;80.53;;;26.88;;
76290;SDS011;65100;46.884;17.410;2023-02-16T09:15:13;56.70;;;23.73;;
76290;SDS011;65100;46.884;17.410;2023-02-16T09:17:40;59.50;;;25.33;;
76290;SDS011;65100;46.884;17.410;2023-02-16T09:20:07;59.78;;;26.52;;
76290;SDS011;65100;46.884;17.410;2023-02-16T09:22:33;61.28;;;24.45;;
76290;SDS011;65100;46.884;17.410;2023-02-16T09:24:58;62.67;;;25.53;;
76290;SDS011;65100;46.884;17.410;2023-02-16T09:27:24;67.40;;;27.95;;
76290;SDS011;65100;46.884;17.410;2023-02-16T09:29:51;59.13;;;25.67;;
76290;SDS011;65100;46.884;17.410;2023-02-16T09:32:17;60.27;;;26.30;;
76290;SDS011;65100;46.884;17.410;2023-02-16T09:34:42;58.22;;;25.38;;
76290;SDS011;65100;46.884;17.410;2023-02-16T09:37:09;53.78;;;24.80;;
76290;SDS011;65100;46.884;17.410;2023-02-16T09:39:35;54.23;;;22.57;;
76290;SDS011;65100;46.884;17.410;2023-02-16T09:46:57;57.70;;;24.00;;
76290;SDS011;65100;46.884;17.410;2023-02-16T09:49:29;58.83;;;26.40;;
76290;SDS011;65100;46.884;17.410;2023-02-16T09:52:04;58.23;;;24.90;;
76290;SDS011;65100;46.884;17.410;2023-02-16T09:57:04;61.67;;;25.23;;
76290;SDS011;65100;46.884;17.410;2023-02-16T09:59:50;58.65;;;26.77;;
76290;SDS011;65100;46.884;17.410;2023-02-16T10:08:23;62.08;;;26.02;;
76290;SDS011;65100;46.884;17.410;2023-02-16T10:16:40;59.55;;;26.30;;
76290;SDS011;65100;46.884;17.410;2023-02-16T10:19:21;59.77;;;26.33;;
76290;SDS011;65100;46.884;17.410;2023-02-16T10:21:52;56.28;;;24.58;;
76290;SDS011;65100;46.884;17.410;2023-02-16T10:24:21;59.42;;;26.15;;
76290;SDS011;65100;46.884;17.410;2023-02-16T10:26:52;63.50;;;26.67;;
76290;SDS011;65100;46.884;17.410;2023-02-16T10:29:24;61.00;;;26.60;;
76290;SDS011;65100;46.884;17.410;2023-02-16T10:32:12;64.90;;;26.83;;
76290;SDS011;65100;46.884;17.410;2023-02-16T10:42:45;61.53;;;29.15;;
76290;SDS011;65100;46.884;17.410;2023-02-16T10:47:55;61.65;;;27.70;;
76290;SDS011;65100;46.884;17.410;2023-02-16T10:50:23;58.58;;;26.75;;
76290;SDS011;65100;46.884;17.410;2023-02-16T10:52:57;58.70;;;25.47;;
76290;SDS011;65100;46.884;17.410;2023-02-16T10:55:26;59.40;;;25.83;;
76290;SDS011;65100;46.884;17.410;2023-02-16T10:57:53;62.45;;;27.17;;
76290;SDS011;65100;46.884;17.410;2023-02-16T11:01:09;62.22;;;28.30;;
76290;SDS011;65100;46.884;17.410;2023-02-16T11:03:15;55.63;;;27.53;;
76290;SDS011;65100;46.884;17.410;2023-02-16T11:05:44;60.08;;;27.55;;
76290;SDS011;65100;46.884;17.410;2023-02-16T11:08:10;61.10;;;26.88;;
76290;SDS011;65100;46.884;17.410;2023-02-16T11:11:11;61.50;;;27.20;;
76290;SDS011;65100;46.884;17.410;2023-02-16T11:13:33;58.30;;;26.52;;
76290;SDS011;65100;46.884;17.410;2023-02-16T11:16:10;59.00;;;27.02;;
76290;SDS011;65100;46.884;17.410;2023-02-16T11:18:44;55.78;;;25.35;;
76290;SDS011;65100;46.884;17.410;2023-02-16T11:21:20;56.47;;;26.30;;
76290;SDS011;65100;46.884;17.410;2023-02-16T11:24:08;65.93;;;27.30;;
76290;SDS011;65100;46.884;17.410;2023-02-16T11:26:36;54.88;;;25.95;;
76290;SDS011;65100;46.884;17.410;2023-02-16T11:29:23;52.78;;;24.10;;
76290;SDS011;65100;46.884;17.410;2023-02-16T11:31:47;53.92;;;25.35;;
76290;SDS011;65100;46.884;17.410;2023-02-16T11:34:55;56.17;;;26.47;;
76290;SDS011;65100;46.884;17.410;2023-02-16T11:37:14;55.70;;;26.58;;
76290;SDS011;65100;46.884;17.410;2023-02-16T11:39:52;57.03;;;26.05;;
76290;SDS011;65100;46.884;17.410;2023-02-16T11:42:30;55.47;;;25.40;;
76290;SDS011;65100;46.884;17.410;2023-02-16T11:44:59;51.47;;;24.70;;
76290;SDS011;65100;46.884;17.410;2023-02-16T11:47:31;51.13;;;24.65;;
76290;SDS011;65100;46.884;17.410;2023-02-16T11:52:37;56.53;;;25.98;;
76290;SDS011;65100;46.884;17.410;2023-02-16T11:55:03;56.73;;;26.40;;
76290;SDS011;65100;46.884;17.410;2023-02-16T11:57:30;54.33;;;25.58;;
76290;SDS011;65100;46.884;17.410;2023-02-16T12:00:01;54.65;;;25.10;;
76290;SDS011;65100;46.884;17.410;2023-02-16T12:03:41;48.90;;;23.60;;
76290;SDS011;65100;46.884;17.410;2023-02-16T12:08:56;53.55;;;25.85;;
76290;SDS011;65100;46.884;17.410;2023-02-16T12:11:37;57.03;;;26.83;;
76290;SDS011;65100;46.884;17.410;2023-02-16T12:17:04;54.30;;;25.03;;
76290;SDS011;65100;46.884;17.410;2023-02-16T12:19:42;53.75;;;24.83;;
76290;SDS011;65100;46.884;17.410;2023-02-16T12:27:17;56.17;;;26.45;;
76290;SDS011;65100;46.884;17.410;2023-02-16T12:29:53;53.70;;;25.73;;
76290;SDS011;65100;46.884;17.410;2023-02-16T12:32:30;52.90;;;25.13;;
76290;SDS011;65100;46.884;17.410;2023-02-16T12:35:04;53.80;;;26.33;;
76290;SDS011;65100;46.884;17.410;2023-02-16T12:48:49;55.30;;;26.30;;
76290;SDS011;65100;46.884;17.410;2023-02-16T12:51:26;52.92;;;25.27;;
76290;SDS011;65100;46.884;17.410;2023-02-16T12:54:13;52.03;;;25.80;;
76290;SDS011;65100;46.884;17.410;2023-02-16T12:56:46;51.67;;;24.00;;
76290;SDS011;65100;46.884;17.410;2023-02-16T13:01:50;52.13;;;25.80;;
76290;SDS011;65100;46.884;17.410;2023-02-16T13:04:55;53.58;;;26.05;;
76290;SDS011;65100;46.884;17.410;2023-02-16T13:12:40;50.40;;;24.95;;
76290;SDS011;65100;46.884;17.410;2023-02-16T13:17:41;53.27;;;25.70;;
76290;SDS011;65100;46.884;17.410;2023-02-16T13:20:17;51.28;;;24.80;;
76290;SDS011;65100;46.884;17.410;2023-02-16T13:25:25;52.80;;;24.75;;
76290;SDS011;65100;46.884;17.410;2023-02-16T13:33:36;60.95;;;24.15;;
76290;SDS011;65100;46.884;17.410;2023-02-16T13:44:19;51.20;;;24.63;;
76290;SDS011;65100;46.884;17.410;2023-02-16T13:46:50;54.50;;;26.13;;
76290;SDS011;65100;46.884;17.410;2023-02-16T13:51:57;49.85;;;25.17;;
76290;SDS011;65100;46.884;17.410;2023-02-16T13:54:26;50.42;;;24.67;;
76290;SDS011;65100;46.884;17.410;2023-02-16T13:56:59;49.37;;;24.30;;
76290;SDS011;65100;46.884;17.410;2023-02-16T14:01:53;51.00;;;24.70;;
76290;SDS011;65100;46.884;17.410;2023-02-16T14:06:46;50.17;;;24.70;;
76290;SDS011;65100;46.884;17.410;2023-02-16T14:19:51;48.83;;;23.60;;
76290;SDS011;65100;46.884;17.410;2023-02-16T14:22:21;52.08;;;23.60;;
76290;SDS011;65100;46.884;17.410;2023-02-16T14:24:56;45.97;;;23.35;;
76290;SDS011;65100;46.884;17.410;2023-02-16T14:30:29;48.27;;;21.97;;
76290;SDS011;65100;46.884;17.410;2023-02-16T14:38:26;48.13;;;23.67;;
76290;SDS011;65100;46.884;17.410;2023-02-16T14:43:32;49.90;;;24.13;;
76290;SDS011;65100;46.884;17.410;2023-02-16T14:46:01;48.80;;;24.88;;
76290;SDS011;65100;46.884;17.410;2023-02-16T14:52:23;50.38;;;25.10;;
76290;SDS011;65100;46.884;17.410;2023-02-16T14:58:02;48.70;;;23.23;;
76290;SDS011;65100;46.884;17.410;2023-02-16T15:03:45;48.45;;;24.25;;
76290;SDS011;65100;46.884;17.410;2023-02-16T15:06:25;47.88;;;24.70;;
76290;SDS011;65100;46.884;17.410;2023-02-16T15:08:59;49.17;;;23.83;;
76290;SDS011;65100;46.884;17.410;2023-02-16T15:11:29;50.20;;;24.07;;
76290;SDS011;65100;46.884;17.410;2023-02-16T15:14:25;46.58;;;23.52;;
76290;SDS011;65100;46.884;17.410;2023-02-16T15:16:52;49.78;;;25.08;;
76290;SDS011;65100;46.884;17.410;2023-02-16T15:19:24;53.30;;;25.02;;
76290;SDS011;65100;46.884;17.410;2023-02-16T15:22:08;51.90;;;26.38;;
76290;SDS011;65100;46.884;17.410;2023-02-16T15:25:01;49.97;;;24.03;;
76290;SDS011;65100;46.884;17.410;2023-02-16T15:27:29;49.25;;;26.17;;
76290;SDS011;65100;46.884;17.410;2023-02-16T15:32:54;50.25;;;24.70;;
76290;SDS011;65100;46.884;17.410;2023-02-16T15:35:24;51.10;;;25.30;;
76290;SDS011;65100;46.884;17.410;2023-02-16T15:38:18;50.33;;;25.40;;
76290;SDS011;65100;46.884;17.410;2023-02-16T15:40:45;50.47;;;24.50;;
76290;SDS011;65100;46.884;17.410;2023-02-16T15:43:21;51.22;;;25.02;;
76290;SDS011;65100;46.884;17.410;2023-02-16T15:45:54;51.63;;;26.48;;
76290;SDS011;65100;46.884;17.410;2023-02-16T15:51:00;50.33;;;25.17;;
76290;SDS011;65100;46.884;17.410;2023-02-16T15:53:35;49.60;;;24.90;;
76290;SDS011;65100;46.884;17.410;2023-02-16T15:56:13;50.58;;;24.27;;
76290;SDS011;65100;46.884;17.410;2023-02-16T15:58:46;49.17;;;25.10;;
76290;SDS011;65100;46.884;17.410;2023-02-16T16:01:18;50.67;;;24.73;;
76290;SDS011;65100;46.884;17.410;2023-02-16T16:03:57;48.70;;;23.13;;
76290;SDS011;65100;46.884;17.410;2023-02-16T16:06:24;54.85;;;24.63;;
76290;SDS011;65100;46.884;17.410;2023-02-16T16:08:57;66.45;;;31.88;;
76290;SDS011;65100;46.884;17.410;2023-02-16T16:11:23;61.63;;;28.85;;
76290;SDS011;65100;46.884;17.410;2023-02-16T16:13:48;50.97;;;24.37;;
76290;SDS011;65100;46.884;17.410;2023-02-16T16:16:14;55.70;;;23.98;;
76290;SDS011;65100;46.884;17.410;2023-02-16T16:18:46;50.93;;;23.43;;
76290;SDS011;65100;46.884;17.410;2023-02-16T16:24:08;44.13;;;21.48;;
76290;SDS011;65100;46.884;17.410;2023-02-16T16:26:56;44.05;;;20.88;;
76290;SDS011;65100;46.884;17.410;2023-02-16T16:29:28;44.05;;;21.92;;
76290;SDS011;65100;46.884;17.410;2023-02-16T16:32:03;57.53;;;26.87;;
76290;SDS011;65100;46.884;17.410;2023-02-16T16:34:35;49.35;;;22.83;;
76290;SDS011;65100;46.884;17.410;2023-02-16T16:37:02;48.90;;;22.17;;
76290;SDS011;65100;46.884;17.410;2023-02-16T16:39:29;44.00;;;21.17;;
76290;SDS011;65100;46.884;17.410;2023-02-16T16:42:17;46.92;;;22.55;;
76290;SDS011;65100;46.884;17.410;2023-02-16T16:44:51;45.23;;;20.43;;
76290;SDS011;65100;46.884;17.410;2023-02-16T16:47:23;45.65;;;21.70;;
76290;SDS011;65100;46.884;17.410;2023-02-16T16:52:33;49.00;;;22.10;;
76290;SDS011;65100;46.884;17.410;2023-02-16T16:55:12;49.88;;;22.20;;
76290;SDS011;65100;46.884;17.410;2023-02-16T16:57:45;50.03;;;21.17;;
76290;SDS011;65100;46.884;17.410;2023-02-16T17:00:12;47.83;;;21.70;;
76290;SDS011;65100;46.884;17.410;2023-02-16T17:02:39;46.22;;;20.00;;
76290;SDS011;65100;46.884;17.410;2023-02-16T17:05:04;44.07;;;19.90;;
76290;SDS011;65100;46.884;17.410;2023-02-16T17:07:30;49.20;;;23.20;;
76290;SDS011;65100;46.884;17.410;2023-02-16T17:09:59;50.85;;;23.15;;
76290;SDS011;65100;46.884;17.410;2023-02-16T17:12:25;48.00;;;22.30;;
76290;SDS011;65100;46.884;17.410;2023-02-16T17:14:51;53.72;;;22.23;;
76290;SDS011;65100;46.884;17.410;2023-02-16T17:17:17;47.00;;;22.13;;
76290;SDS011;65100;46.884;17.410;2023-02-16T17:19:42;53.53;;;24.10;;
76290;SDS011;65100;46.884;17.410;2023-02-16T17:22:11;54.03;;;24.30;;
76290;SDS011;65100;46.884;17.410;2023-02-16T17:24:41;47.47;;;21.30;;
76290;SDS011;65100;46.884;17.410;2023-02-16T17:27:07;51.40;;;22.60;;
76290;SDS011;65100;46.884;17.410;2023-02-16T17:29:32;51.57;;;23.93;;
76290;SDS011;65100;46.884;17.410;2023-02-16T17:31:58;51.20;;;21.73;;
76290;SDS011;65100;46.884;17.410;2023-02-16T17:34:23;52.70;;;23.90;;
76290;SDS011;65100;46.884;17.410;2023-02-16T17:36:57;49.35;;;23.13;;
76290;SDS011;65100;46.884;17.410;2023-02-16T17:39:27;49.88;;;23.30;;
76290;SDS011;65100;46.884;17.410;2023-02-16T17:41:53;50.55;;;22.95;;
76290;SDS011;65100;46.884;17.410;2023-02-16T17:44:19;48.90;;;21.93;;
76290;SDS011;65100;46.884;17.410;2023-02-16T17:46:44;47.10;;;22.27;;
76290;SDS011;65100;46.884;17.410;2023-02-16T17:49:10;45.80;;;21.00;;
76290;SDS011;65100;46.884;17.410;2023-02-16T17:51:36;44.25;;;20.38;;
76290;SDS011;65100;46.884;17.410;2023-02-16T17:54:05;45.37;;;20.80;;
76290;SDS011;65100;46.884;17.410;2023-02-16T17:56:35;44.22;;;20.77;;
76290;SDS011;65100;46.884;17.410;2023-02-16T17:59:03;45.47;;;19.58;;
76290;SDS011;65100;46.884;17.410;2023-02-16T18:01:29;42.88;;;19.83;;
76290;SDS011;65100;46.884;17.410;2023-02-16T18:03:56;42.93;;;19.10;;
76290;SDS011;65100;46.884;17.410;2023-02-16T18:06:23;45.40;;;21.67;;
76290;SDS011;65100;46.884;17.410;2023-02-16T18:08:50;45.88;;;21.05;;
76290;SDS011;65100;46.884;17.410;2023-02-16T18:11:16;44.77;;;19.17;;
76290;SDS011;65100;46.884;17.410;2023-02-16T18:13:42;47.30;;;20.42;;
76290;SDS011;65100;46.884;17.410;2023-02-16T18:16:09;42.22;;;19.25;;
76290;SDS011;65100;46.884;17.410;2023-02-16T18:18:38;42.07;;;20.23;;
76290;SDS011;65100;46.884;17.410;2023-02-16T18:21:04;46.97;;;20.25;;